Ba-Xuyen, Viet Nam

12:43 PM ICT on July 28, 2014 (GMT +0700)
Tra Noc (VVCT) Elev 7 ft | 10.09 °N, 105.71 °E | Change Station

Current weather conditions updated 13 minutes ago

Mostly Cloudy
Mostly Cloudy
88 °F
Feels Like 98 °F
N
10
Wind Variable Wind from West

Today is forecast to be Cooler than yesterday. A few thunderstorms possible.

Today
High -- | Low -- °F
--% Chance of Precip.
Yesterday
High -- | Low -- °F
Precip. -- in
5:45 AM 6:19 PM
New Moon, 2% visible
Pressure 29.77 in
Visibility 6.2 miles
Clouds Scattered Clouds 1500 ft
Mostly Cloudy 5000 ft
Heat Index 98 °F
Dew Point 75 °F
Humidity 66%
Rainfall 0.00 in
Snow Depth Not available.
UV 9 out of 12
Pollen Not available.
Air Quality Not available.
Flu Activity Not available.
METAR VVCT 280530Z 26009KT 9999 SCT015 BKN050 31/24 Q1008 NOSIG

More Conditions Fewer Conditions

Pressure 29.77 in
Visibility 6.2 miles
Clouds Scattered Clouds 1500 ft
Mostly Cloudy 5000 ft
Heat Index 98 °F
Dew Point 75 °F
Humidity 66%
Rainfall 0.00 in
Snow Depth Not available.
UV 9 out of 12
Pollen Not available.
Air Quality Not available.
Flu Activity Not available.
METAR VVCT 280530Z 26009KT 9999 SCT015 BKN050 31/24 Q1008 NOSIG

More Conditions Fewer Conditions

10-Day Weather Forecast

Almanac

Astronomy

Jul. 28, 2014 Rise Set
Actual Time 5:45 AM ICT 6:19 PM ICT
Civil Twilight 5:23 AM ICT 6:41 PM ICT
Nautical Twilight 4:57 AM ICT 7:07 PM ICT
Astronomical Twilight 4:30 AM ICT 7:34 PM ICT
Moon 6:35 AM ICT 7:11 PM ICT
Length of Visible Light 13h 18m
Length of Day
12h 33m
Tomorrow will be 0m 23s shorter.
New Moon, 2% of the Moon is Illuminated
Today
New Moon
Aug 3
First Quarter
Aug 10
Full
Aug 17
Last Quarter
Aug 25
New

Yesterday's Extremes

Country Highs Country Lows

Community

WunderPhotos

Upload Photos

1,738,299 photos uploaded!

Nearby

Snow Depth

Not available.

Earthquake Activity

City Distance Mag. Time & Date
No recent earthquake activity has been reported nearby.
Minimum magnitude displayed is 2.5.

Coastal Water Temperatures

Place Temperature
No Stations Reporting

Nearby Weather Stations

There are no personal weather stations in this area.